www.srh.weather.gov   
NOAA logo - Click to go to the NOAA homepage   NWS logo
Terminal Aerodrome Forecast
Enter Your "City, ST" or zip code   
Current Version              Previous Version:    01  02  03  04  05  06  07  08  09  10  11  12  13  14  15  16  17  18  19  20  21  22  23  24  25  26  27  28  29  30  
   31  32  33  34  35  36  37  38  39  40  41  42  43  44  45  46  47  48  49  50  51  52  53  54  55  56  57  58  59  60  
[Printable]
646
FTUS41 KCTP 220647 AAA
TAFIPT
TAF AMD
KIPT 220647Z 2207/2306 28006KT 6SM -SHRA BKN025 OVC040
     FM220900 30006KT 5SM -SHRA BR OVC015
     FM221200 33007KT 2SM -SHRA BR OVC010
     FM221500 33008KT 6SM -SHRA BR OVC017
     FM222000 32010KT 6SM BR VCSH OVC020=

646
FTUS41 KCTP 220647 AAA
TAFIPT
TAF AMD
KIPT 220647Z 2207/2306 28006KT 6SM -SHRA BKN025 OVC040
     FM220900 30006KT 5SM -SHRA BR OVC015
     FM221200 33007KT 2SM -SHRA BR OVC010
     FM221500 33008KT 6SM -SHRA BR OVC017
     FM222000 32010KT 6SM BR VCSH OVC020=



National Weather Service
Disclaimer
Last Modified: August 31, 2005
Privacy Policy